Time;durP1;ratioP1;P1;durP2;ratioP2;P2;SDS_P1;SDS_P2;PMS_P1;PMS_P2;Temp;Humidity;BMP_temperature;BMP_pressure;BME280_temperature;BME280_humidity;BME280_pressure;Samples;Min_cycle;Max_cycle;Signal;HPM_P1;HPM_P2
2021/01/09 00:00:56;;;;;;;24.40;10.73;;;;;;;-0.62;88.00;99271.22;5108010;28;20043;-79
2021/01/09 00:03:24;;;;;;;19.27;9.03;;;;;;;-0.58;88.27;99271.88;5110324;28;20352;-79
2021/01/09 00:05:51;;;;;;;24.47;10.83;;;;;;;-0.54;88.03;99266.19;5110937;28;20098;-79
2021/01/09 00:08:17;;;;;;;23.90;10.33;;;;;;;-0.54;87.73;99268.88;5100689;28;20135;-79
2021/01/09 00:10:43;;;;;;;21.10;10.67;;;;;;;-0.51;87.60;99265.13;5111732;28;20097;-79
2021/01/09 00:13:09;;;;;;;23.83;11.37;;;;;;;-0.52;87.57;99262.56;5111398;28;20044;-79
2021/01/09 00:15:36;;;;;;;20.53;10.37;;;;;;;-0.65;87.79;99251.91;5111268;28;20056;-79
2021/01/09 00:18:02;;;;;;;20.30;10.13;;;;;;;-0.59;88.32;99256.81;5110949;28;20082;-79
2021/01/09 00:20:30;;;;;;;20.33;10.50;;;;;;;-0.53;87.60;99259.03;5110848;28;20044;-79
2021/01/09 00:23:02;;;;;;;25.63;12.27;;;;;;;-0.52;87.98;99243.88;5112553;28;20043;-79
2021/01/09 00:25:38;;;;;;;30.63;12.13;;;;;;;-0.45;87.43;99239.75;5110055;28;20069;-79
2021/01/09 00:28:05;;;;;;;23.70;11.43;;;;;;;-0.43;87.80;99253.88;5111570;28;20120;-79
2021/01/09 00:30:31;;;;;;;21.63;10.47;;;;;;;-0.55;87.81;99253.81;5105632;28;20039;-79
2021/01/09 00:32:58;;;;;;;23.60;10.40;;;;;;;-0.50;87.20;99265.97;5111057;28;20047;-79
2021/01/09 00:35:25;;;;;;;24.30;11.27;;;;;;;-0.56;87.46;99248.56;5112280;28;20055;-79
2021/01/09 00:37:52;;;;;;;22.43;12.30;;;;;;;-0.46;88.06;99262.97;5112090;28;20055;-78
2021/01/09 00:40:20;;;;;;;24.10;12.13;;;;;;;-0.41;87.89;99268.81;5111582;28;20052;-79
2021/01/09 00:42:47;;;;;;;24.10;11.87;;;;;;;-0.52;88.33;99255.41;5110524;28;20051;-79
2021/01/09 00:45:14;;;;;;;17.77;10.53;;;;;;;-0.53;87.36;99261.69;5110323;28;20043;-79
2021/01/09 00:47:40;;;;;;;25.70;11.60;;;;;;;-0.51;87.68;99270.47;5111409;28;20412;-79
2021/01/09 00:50:07;;;;;;;22.87;11.40;;;;;;;-0.61;87.78;99254.25;5110143;28;20051;-79
2021/01/09 00:52:34;;;;;;;22.73;10.97;;;;;;;-0.58;87.82;99262.03;5107956;28;20072;-79
2021/01/09 00:55:01;;;;;;;22.83;10.97;;;;;;;-0.60;87.28;99257.78;5108694;28;20105;-79
2021/01/09 00:57:27;;;;;;;29.70;11.07;;;;;;;-0.66;87.16;99250.19;5110669;28;20511;-78
2021/01/09 00:59:53;;;;;;;31.17;12.77;;;;;;;-0.67;87.50;99254.69;5109878;28;20098;-79
2021/01/09 01:02:20;;;;;;;25.07;12.30;;;;;;;-0.58;87.38;99275.38;5108881;28;20047;-79
2021/01/09 01:04:48;;;;;;;22.03;11.17;;;;;;;-0.54;87.88;99276.88;5109431;28;20077;-79
2021/01/09 01:07:14;;;;;;;22.03;10.57;;;;;;;-0.56;88.06;99275.28;5114670;27;20040;-79
2021/01/09 01:09:40;;;;;;;22.97;12.27;;;;;;;-0.48;87.67;99288.94;5104383;28;20480;-79
2021/01/09 01:12:08;;;;;;;26.27;12.67;;;;;;;-0.47;88.07;99284.44;5119010;28;20040;-78
2021/01/09 01:14:35;;;;;;;20.93;11.13;;;;;;;-0.57;87.32;99271.75;5109833;28;20126;-79
2021/01/09 01:17:01;;;;;;;23.13;11.17;;;;;;;-0.54;87.65;99284.06;5109991;28;20047;-78
2021/01/09 01:19:28;;;;;;;25.87;11.97;;;;;;;-0.49;87.61;99291.72;5110239;28;20050;-78
2021/01/09 01:21:55;;;;;;;25.83;11.83;;;;;;;-0.43;87.61;99299.28;5109537;28;20062;-80
2021/01/09 01:24:22;;;;;;;27.80;12.17;;;;;;;-0.41;87.17;99289.34;5109767;28;20058;-79
2021/01/09 01:26:48;;;;;;;22.30;11.70;;;;;;;-0.57;87.47;99289.63;5113768;28;20424;-78
2021/01/09 01:29:17;;;;;;;21.93;11.10;;;;;;;-0.68;87.02;99286.84;5108466;28;20098;-79
2021/01/09 01:31:43;;;;;;;21.37;10.93;;;;;;;-0.49;87.73;99310.44;5113055;28;20100;-79
2021/01/09 01:34:09;;;;;;;23.20;10.90;;;;;;;-0.49;87.35;99302.41;5112225;28;20059;-79
2021/01/09 01:36:35;;;;;;;23.83;11.67;;;;;;;-0.54;87.80;99300.91;5109293;28;20461;-79
2021/01/09 01:39:02;;;;;;;20.83;11.60;;;;;;;-0.37;87.94;99297.00;5113000;28;20051;-78
2021/01/09 01:41:28;;;;;;;20.47;10.57;;;;;;;-0.37;88.04;99302.34;5114401;27;20043;-80
2021/01/09 01:43:55;;;;;;;22.20;11.60;;;;;;;-0.41;88.03;99303.53;5113907;28;20047;-79
2021/01/09 01:46:22;;;;;;;24.20;11.77;;;;;;;-0.45;88.55;99301.19;5109371;28;20044;-79
2021/01/09 01:48:48;;;;;;;21.90;10.73;;;;;;;-0.38;88.57;99302.47;5112150;28;20055;-79
2021/01/09 01:51:15;;;;;;;21.57;10.27;;;;;;;-0.48;88.06;99304.09;5112449;28;20066;-78
2021/01/09 01:53:41;;;;;;;23.97;10.97;;;;;;;-0.44;87.73;99295.75;5113064;28;20082;-79
2021/01/09 01:56:08;;;;;;;25.57;11.63;;;;;;;-0.44;87.42;99287.72;5114147;28;20047;-79
2021/01/09 01:58:34;;;;;;;24.60;11.13;;;;;;;-0.38;87.11;99297.13;5113497;28;20052;-79
2021/01/09 02:01:00;;;;;;;26.13;12.13;;;;;;;-0.53;86.58;99267.03;5113670;28;20047;-78
2021/01/09 02:03:28;;;;;;;25.70;11.87;;;;;;;-0.54;86.75;99270.69;5113595;28;20055;-79
2021/01/09 02:06:00;;;;;;;21.90;12.37;;;;;;;-0.35;86.90;99294.22;5113101;28;20048;-78
2021/01/09 02:08:33;;;;;;;20.17;11.10;;;;;;;-0.37;87.36;99298.84;5108376;28;20086;-78
2021/01/09 02:11:04;;;;;;;22.07;11.80;;;;;;;-0.39;87.12;99290.09;5114096;28;20419;-78
2021/01/09 02:13:50;;;;;;;20.77;11.23;;;;;;;-0.34;86.93;99287.09;5112491;28;20051;-79
2021/01/09 02:16:17;;;;;;;24.47;11.57;;;;;;;-0.38;86.87;99294.44;5100766;27;20044;-79
2021/01/09 02:18:45;;;;;;;27.23;11.70;;;;;;;-0.38;87.35;99299.78;5114756;28;20075;-79
2021/01/09 02:21:21;;;;;;;24.77;12.40;;;;;;;-0.46;87.74;99289.69;5117008;27;20136;-77
2021/01/09 02:23:49;;;;;;;27.73;11.60;;;;;;;-0.39;87.73;99296.28;5112054;28;20078;-77
2021/01/09 02:26:19;;;;;;;25.77;11.77;;;;;;;-0.42;87.75;99311.66;5114102;28;20104;-77
2021/01/09 02:28:45;;;;;;;;;;;;;;;-0.44;87.97;99300.25;5112568;28;20052;-77
2021/01/09 02:31:13;;;;;;;25.03;11.07;;;;;;;-0.45;88.54;99309.22;5113376;28;19920;-77
2021/01/09 02:33:41;;;;;;;23.07;11.50;;;;;;;-0.43;88.14;99313.50;5113897;28;20427;-77
2021/01/09 02:36:08;;;;;;;25.53;12.17;;;;;;;-0.50;88.45;99301.53;5113866;28;20047;-77
2021/01/09 02:38:36;;;;;;;24.77;12.03;;;;;;;-0.50;88.23;99292.69;5113406;28;20399;-77
2021/01/09 02:41:05;;;;;;;22.27;11.33;;;;;;;-0.40;88.25;99307.06;5096566;28;20381;-77
2021/01/09 02:43:31;;;;;;;19.37;11.37;;;;;;;-0.43;88.22;99301.97;5113163;28;20044;-77
2021/01/09 02:45:57;;;;;;;22.90;11.10;;;;;;;-0.45;88.49;99296.72;5112930;28;20047;-77
2021/01/09 02:48:24;;;;;;;22.67;12.30;;;;;;;-0.42;88.39;99312.53;5113774;28;20048;-77
2021/01/09 02:50:50;;;;;;;24.53;11.03;;;;;;;-0.59;88.02;99291.53;5112513;28;20063;-77
2021/01/09 02:53:16;;;;;;;22.70;11.43;;;;;;;-0.46;88.54;99304.84;5113899;28;20043;-77
2021/01/09 02:55:42;;;;;;;19.40;11.27;;;;;;;-0.57;87.69;99295.78;5113244;28;20051;-77
2021/01/09 02:58:09;;;;;;;26.83;11.53;;;;;;;-0.40;88.28;99313.25;5113872;28;20051;-77
2021/01/09 03:00:36;;;;;;;19.73;10.50;;;;;;;-0.55;88.50;99295.69;5113583;28;20495;-77
2021/01/09 03:03:02;;;;;;;22.53;11.33;;;;;;;-0.35;87.69;99299.56;5105233;28;20047;-77
2021/01/09 03:05:28;;;;;;;23.07;11.93;;;;;;;-0.43;87.87;99293.94;5112855;28;20385;-77
2021/01/09 03:07:54;;;;;;;25.83;11.93;;;;;;;-0.27;87.25;99312.38;5113140;28;20043;-77
2021/01/09 03:10:41;;;;;;;24.67;11.53;;;;;;;-0.33;87.10;99311.00;5113672;28;20056;-79
2021/01/09 03:13:07;;;;;;;24.93;11.67;;;;;;;-0.32;87.39;99311.84;5112560;28;20048;-78
2021/01/09 03:15:34;;;;;;;24.30;11.80;;;;;;;-0.41;87.59;99311.56;5112334;28;20078;-78
2021/01/09 03:18:01;;;;;;;22.50;10.80;;;;;;;-0.45;87.87;99307.41;5113135;28;20051;-78
2021/01/09 03:20:27;;;;;;;24.17;12.10;;;;;;;-0.40;87.64;99320.44;5113212;28;20044;-78
2021/01/09 03:22:53;;;;;;;24.20;11.97;;;;;;;-0.37;87.50;99304.19;5119445;27;20050;-78
2021/01/09 03:25:19;;;;;;;20.13;10.93;;;;;;;-0.53;88.05;99296.41;5113183;28;20078;-78
2021/01/09 03:27:46;;;;;;;19.63;11.17;;;;;;;-0.46;88.20;99328.91;5112752;28;20097;-79
2021/01/09 03:30:13;;;;;;;22.00;11.63;;;;;;;-0.48;88.43;99322.78;5112662;28;20055;-78
2021/01/09 03:32:40;;;;;;;26.73;12.03;;;;;;;-0.44;88.32;99317.13;5112520;28;20043;-78
2021/01/09 03:35:07;;;;;;;25.57;11.63;;;;;;;-0.44;nan;99319.78;5112075;28;20093;-78
2021/01/09 03:37:33;;;;;;;25.13;12.10;;;;;;;-0.67;88.63;99292.09;5113048;28;20054;-78
2021/01/09 03:39:59;;;;;;;25.50;12.67;;;;;;;-0.52;89.33;99316.84;5111998;28;20062;-78
2021/01/09 03:42:26;;;;;;;24.37;12.30;;;;;;;-0.57;88.99;99314.50;5112824;28;20109;-78
2021/01/09 03:44:52;;;;;;;23.60;11.93;;;;;;;-0.54;89.13;99311.59;5110543;28;20200;-78
2021/01/09 03:47:18;;;;;;;21.33;10.57;;;;;;;-0.54;89.73;99327.63;5113259;28;20051;-78
2021/01/09 03:49:45;;;;;;;26.53;12.13;;;;;;;-0.51;89.63;99323.00;5111433;28;20483;-78
2021/01/09 03:52:11;;;;;;;20.93;11.90;;;;;;;-0.50;89.62;99328.25;5112541;28;20055;-78
2021/01/09 03:54:38;;;;;;;24.70;12.57;;;;;;;-0.52;89.07;99332.00;5112527;28;20054;-78
2021/01/09 03:57:04;;;;;;;22.07;12.10;;;;;;;-0.52;89.27;99324.84;5112092;28;20047;-78
2021/01/09 03:59:31;;;;;;;27.00;11.37;;;;;;;-0.41;89.18;99324.91;5112467;28;20047;-78
2021/01/09 04:01:57;;;;;;;24.63;11.37;;;;;;;-0.44;88.74;99322.47;5111934;28;20043;-78
2021/01/09 04:04:23;;;;;;;21.60;11.67;;;;;;;-0.55;88.84;99311.72;5112371;28;20101;-78
2021/01/09 04:06:50;;;;;;;22.93;12.43;;;;;;;-0.47;88.28;99324.50;5112405;28;20043;-78
2021/01/09 04:09:17;;;;;;;23.87;12.03;;;;;;;-0.50;89.12;99333.59;5111687;28;20057;-78
2021/01/09 04:11:43;;;;;;;22.73;11.67;;;;;;;-0.57;89.51;99329.69;5112095;28;20043;-78
2021/01/09 04:14:09;;;;;;;26.63;11.90;;;;;;;-0.53;89.50;99328.47;5111670;28;20059;-78
2021/01/09 04:16:36;;;;;;;24.00;12.40;;;;;;;-0.50;89.97;99335.41;5111926;28;20055;-78
2021/01/09 04:19:02;;;;;;;23.87;12.63;;;;;;;-0.49;89.47;99327.28;5111813;28;20511;-78
2021/01/09 04:21:28;;;;;;;26.97;11.93;;;;;;;-0.41;89.50;99332.91;5111711;28;20500;-78
2021/01/09 04:23:56;;;;;;;29.07;11.63;;;;;;;-0.46;89.47;99337.75;5111825;28;20043;-78
2021/01/09 04:26:22;;;;;;;22.30;11.43;;;;;;;-0.50;89.58;99336.25;5091636;28;20085;-78
2021/01/09 04:28:48;;;;;;;26.20;12.23;;;;;;;-0.51;89.87;99337.25;5113162;28;20051;-78
2021/01/09 04:31:31;;;;;;;24.90;13.03;;;;;;;-0.46;89.69;99336.91;5113016;28;20481;-78
2021/01/09 04:33:57;;;;;;;25.60;13.03;;;;;;;-0.43;89.07;99324.16;5093602;28;20073;-78
2021/01/09 04:36:24;;;;;;;26.03;12.13;;;;;;;-0.41;88.65;99342.75;5111019;28;20040;-78
2021/01/09 04:38:50;;;;;;;26.90;12.83;;;;;;;-0.40;89.24;99334.63;5111189;28;20043;-78
2021/01/09 04:41:20;;;;;;;26.57;13.07;;;;;;;-0.41;89.26;99335.59;5111478;28;20051;-78
2021/01/09 04:43:47;;;;;;;23.92;11.25;;;;;;;-0.45;89.89;99333.25;5111570;28;20044;-78
2021/01/09 04:46:16;;;;;;;24.17;12.67;;;;;;;-0.46;89.35;99343.09;5110917;28;20043;-78
2021/01/09 04:48:42;;;;;;;23.90;12.47;;;;;;;-0.46;89.27;99342.25;5111426;28;20105;-78
2021/01/09 04:51:09;;;;;;;29.77;13.43;;;;;;;-0.49;89.54;99337.13;5111695;28;20051;-78
2021/01/09 04:53:37;;;;;;;30.13;13.90;;;;;;;-0.56;89.58;99328.69;5111601;28;20082;-78
2021/01/09 04:56:04;;;;;;;32.10;13.13;;;;;;;-0.50;89.67;99349.63;5111172;28;20063;-78
2021/01/09 04:58:32;;;;;;;26.07;13.40;;;;;;;-0.56;89.76;99339.38;5110559;28;20040;-78
2021/01/09 05:00:59;;;;;;;28.77;13.70;;;;;;;-0.51;89.66;99337.25;5111250;28;20340;-78
2021/01/09 05:03:25;;;;;;;30.17;13.43;;;;;;;-0.66;89.53;99317.81;5115262;28;20456;-78
2021/01/09 05:05:51;;;;;;;31.80;13.50;;;;;;;-0.65;89.62;99329.34;5115636;28;20415;-78
2021/01/09 05:08:17;;;;;;;31.90;14.37;;;;;;;-0.57;89.40;99356.38;5115728;28;20047;-78
2021/01/09 05:10:44;;;;;;;27.03;12.07;;;;;;;-0.63;90.00;99336.31;5115165;28;20055;-78
2021/01/09 05:13:10;;;;;;;28.17;13.40;;;;;;;-0.66;90.04;99331.19;5115965;28;20081;-78
2021/01/09 05:15:38;;;;;;;25.57;12.73;;;;;;;-0.47;89.52;99351.22;5115548;28;20044;-78
2021/01/09 05:18:05;;;;;;;33.60;12.93;;;;;;;-0.56;89.69;99340.25;5115419;28;20552;-78
2021/01/09 05:20:31;;;;;;;25.60;13.37;;;;;;;-0.51;90.04;99358.59;5114620;28;20495;-78
2021/01/09 05:22:59;;;;;;;28.27;13.73;;;;;;;-0.51;90.04;99357.72;5114867;28;20125;-78
2021/01/09 05:25:26;;;;;;;29.43;13.77;;;;;;;-0.50;89.89;99359.44;5115135;28;20044;-78
2021/01/09 05:27:54;;;;;;;25.73;13.10;;;;;;;-0.50;90.17;99354.09;5115192;28;20047;-78
2021/01/09 05:30:22;;;;;;;30.10;13.63;;;;;;;-0.52;90.68;99359.56;5107578;28;20407;-78
2021/01/09 05:32:49;;;;;;;37.37;14.13;;;;;;;-0.55;90.49;99351.78;5114869;28;20044;-78
2021/01/09 05:35:17;;;;;;;28.63;13.93;;;;;;;-0.54;90.21;99359.69;5114674;28;20399;-77
2021/01/09 05:37:47;;;;;;;31.63;14.10;;;;;;;-0.68;89.95;99343.75;5115240;28;20062;-78
2021/01/09 05:40:14;;;;;;;27.53;13.73;;;;;;;-0.55;89.99;99368.63;5114954;28;20483;-78
2021/01/09 05:42:41;;;;;;;29.20;13.87;;;;;;;-0.56;90.32;99369.63;5115182;28;20069;-78
2021/01/09 05:45:08;;;;;;;25.70;12.80;;;;;;;-0.50;90.44;99364.78;5114171;28;20048;-78
2021/01/09 05:47:37;;;;;;;28.63;12.37;;;;;;;-0.54;90.84;99370.34;5114821;28;20050;-79
2021/01/09 05:50:06;;;;;;;25.90;13.50;;;;;;;-0.60;90.25;99362.78;5114715;28;20503;-79
2021/01/09 05:52:37;;;;;;;27.05;12.90;;;;;;;-0.48;90.29;99373.53;5114222;28;20048;-79
2021/01/09 05:55:04;;;;;;;24.33;12.57;;;;;;;-0.56;90.63;99366.06;5114620;28;20419;-79
2021/01/09 05:57:32;;;;;;;23.70;11.97;;;;;;;-0.50;90.46;99370.13;5113417;28;20039;-79
2021/01/09 05:59:59;;;;;;;29.20;13.77;;;;;;;-0.46;90.18;99376.97;5114460;28;20363;-79
2021/01/09 06:02:26;;;;;;;25.93;14.17;;;;;;;-0.43;89.68;99363.41;5114016;28;20047;-80
2021/01/09 06:04:56;;;;;;;30.53;14.43;;;;;;;-0.41;89.59;99356.13;5113810;28;20058;-79
2021/01/09 06:07:26;;;;;;;33.67;13.90;;;;;;;-0.36;88.91;99360.16;5113803;28;20124;-79
2021/01/09 06:09:58;;;;;;;34.65;15.65;;;;;;;-0.51;89.86;99366.63;5113891;28;20051;-80
2021/01/09 06:12:26;;;;;;;32.90;14.60;;;;;;;-0.44;90.52;99378.56;5113713;28;20051;-79
2021/01/09 06:14:53;;;;;;;29.03;14.53;;;;;;;-0.40;89.34;99377.38;5114799;28;20392;-79
2021/01/09 06:17:21;;;;;;;29.40;13.57;;;;;;;-0.50;90.33;99375.47;5113821;28;20040;-80
2021/01/09 06:19:48;;;;;;;33.57;15.40;;;;;;;-0.60;89.43;99373.47;5121282;28;20051;-79
2021/01/09 06:22:18;;;;;;;27.97;14.67;;;;;;;-0.54;90.00;99378.38;5113683;28;20054;-79
2021/01/09 06:24:46;;;;;;;27.58;12.95;;;;;;;-0.46;89.97;99383.16;5113183;28;20060;-79
2021/01/09 06:27:21;;;;;;;29.43;13.83;;;;;;;-0.48;90.15;99385.09;5113024;28;20036;-80
2021/01/09 06:29:49;;;;;;;32.40;14.03;;;;;;;-0.44;90.62;99386.56;5110849;28;20050;-79
2021/01/09 06:32:20;;;;;;;32.27;15.70;;;;;;;-0.44;89.57;99385.72;5093639;28;20554;-80
2021/01/09 06:34:49;;;;;;;28.57;14.40;;;;;;;-0.51;89.92;99379.97;5106253;28;20483;-79
2021/01/09 06:37:22;;;;;;;33.15;15.02;;;;;;;-0.44;89.35;99389.22;5113907;28;20409;-79
2021/01/09 06:39:50;;;;;;;31.03;13.60;;;;;;;-0.55;89.57;99373.13;5117748;27;20609;-79
2021/01/09 06:42:19;;;;;;;36.13;15.30;;;;;;;-0.48;89.57;99400.25;5122541;27;20079;-79
2021/01/09 06:44:51;;;;;;;30.57;14.37;;;;;;;-0.49;90.15;99394.06;5113187;28;20074;-79
2021/01/09 06:47:25;;;;;;;34.80;15.63;;;;;;;-0.62;90.38;99383.38;5113875;28;20551;-79
2021/01/09 06:49:51;;;;;;;39.97;15.33;;;;;;;-0.54;90.20;99398.88;5112972;28;20507;-80
2021/01/09 06:52:17;;;;;;;28.13;14.47;;;;;;;-0.55;90.29;99402.50;5113762;28;20475;-79
2021/01/09 06:54:45;;;;;;;31.30;14.60;;;;;;;-0.54;90.17;99404.22;5112857;28;20511;-80
2021/01/09 06:57:14;;;;;;;31.27;13.83;;;;;;;-0.57;90.37;99407.97;5112074;28;20100;-80
2021/01/09 06:59:42;;;;;;;28.30;13.53;;;;;;;-0.61;90.60;99394.94;5112782;28;20105;-80
2021/01/09 07:02:22;;;;;;;31.73;14.27;;;;;;;-0.56;91.08;99401.66;5113195;28;20048;-80
2021/01/09 07:04:55;;;;;;;30.58;13.90;;;;;;;-0.61;90.44;99401.13;5112270;27;20052;-80
2021/01/09 07:07:33;;;;;;;30.60;15.00;;;;;;;-0.60;90.90;99399.31;5113072;28;20039;-79
2021/01/09 07:10:21;;;;;;;33.63;15.87;;;;;;;-0.55;90.63;99400.69;5111372;28;20495;-80
2021/01/09 07:12:52;;;;;;;32.93;14.63;;;;;;;-0.34;89.36;99410.81;5094858;28;20051;-80
2021/01/09 07:15:20;;;;;;;36.90;15.47;;;;;;;-0.41;89.54;99398.84;5111665;28;20062;-80
2021/01/09 07:17:51;;;;;;;29.60;14.93;;;;;;;-0.50;89.91;99407.53;5106053;28;20044;-80
2021/01/09 07:20:20;;;;;;;33.97;14.53;;;;;;;-0.57;90.53;99407.97;5112928;28;20119;-80
2021/01/09 07:22:49;;;;;;;33.90;15.15;;;;;;;-0.60;90.12;99400.16;5100816;28;20139;-80
2021/01/09 07:25:25;;;;;;;29.92;13.48;;;;;;;-0.52;90.59;99414.81;5107294;28;20093;-79
2021/01/09 07:27:56;;;;;;;34.40;15.13;;;;;;;-0.51;90.27;99416.50;5110375;28;20047;-80
2021/01/09 07:30:24;;;;;;;33.03;15.20;;;;;;;-0.52;90.35;99407.63;5111640;28;20062;-80
2021/01/09 07:32:51;;;;;;;26.70;12.97;;;;;;;-0.63;90.29;99397.72;5112703;28;20122;-80
2021/01/09 07:35:20;;;;;;;32.57;14.93;;;;;;;-0.54;89.55;99415.75;5112194;28;20045;-80
2021/01/09 07:37:48;;;;;;;31.48;14.88;;;;;;;-0.73;90.47;99389.47;5103165;28;20102;-80
2021/01/09 07:40:17;;;;;;;30.30;13.97;;;;;;;-0.59;90.84;99414.38;5112408;28;20498;-80
2021/01/09 07:42:44;;;;;;;34.88;14.68;;;;;;;-0.58;90.36;99424.09;5112643;28;20044;-80
2021/01/09 07:45:14;;;;;;;31.70;14.63;;;;;;;-0.66;90.24;99415.75;5111315;28;20048;-80
2021/01/09 07:47:42;;;;;;;35.53;15.33;;;;;;;-0.63;90.66;99431.56;5111986;28;20105;-79
2021/01/09 07:50:11;;;;;;;31.73;14.53;;;;;;;-0.64;90.45;99427.19;5102404;28;20043;-80
2021/01/09 07:52:38;;;;;;;39.27;17.83;;;;;;;-0.44;89.55;99428.47;5112397;27;20039;-80
2021/01/09 07:55:06;;;;;;;36.53;16.80;;;;;;;-0.39;89.10;99437.88;5114070;27;20507;-80
2021/01/09 07:57:32;;;;;;;46.23;18.53;;;;;;;-0.52;89.29;99434.34;5111257;28;20039;-80
2021/01/09 08:00:08;;;;;;;39.57;18.17;;;;;;;-0.40;88.63;99436.16;5112204;28;20044;-80
2021/01/09 08:02:40;;;;;;;32.07;15.70;;;;;;;-0.50;88.77;99435.09;5111668;28;20306;-80
2021/01/09 08:05:12;;;;;;;35.60;17.63;;;;;;;-0.51;88.59;99428.06;5122345;27;20502;-79
2021/01/09 08:07:39;;;;;;;38.57;16.77;;;;;;;-0.50;88.59;99443.09;5112569;28;20395;-79
2021/01/09 08:10:20;;;;;;;39.93;17.33;;;;;;;-0.40;88.50;99452.19;5113187;28;20503;-79
2021/01/09 08:12:53;;;;;;;42.37;17.43;;;;;;;-0.45;88.65;99448.09;5112044;28;20048;-79
2021/01/09 08:15:19;;;;;;;40.23;17.73;;;;;;;-0.43;87.88;99455.06;5112144;28;20106;-79
2021/01/09 08:17:46;;;;;;;38.77;17.97;;;;;;;-0.55;88.78;99464.78;5111876;28;20438;-79
2021/01/09 08:20:14;;;;;;;40.77;16.67;;;;;;;-0.45;88.53;99466.81;5111602;28;20074;-80
2021/01/09 08:22:50;;;;;;;42.93;16.73;;;;;;;-0.44;87.88;99466.69;5111523;28;20043;-80
2021/01/09 08:25:17;;;;;;;39.07;17.40;;;;;;;-0.48;88.21;99459.88;5100193;28;20043;-79
2021/01/09 08:27:48;;;;;;;40.03;18.10;;;;;;;-0.38;87.81;99476.97;5111235;28;20055;-79
2021/01/09 08:30:16;;;;;;;32.50;15.00;;;;;;;-0.57;88.30;99465.88;5111268;28;20051;-79
2021/01/09 08:32:42;;;;;;;37.17;16.23;;;;;;;-0.47;88.52;99474.94;5111988;28;20043;-79
2021/01/09 08:35:12;;;;;;;37.83;16.57;;;;;;;-0.58;88.43;99478.34;5111329;28;20047;-79
2021/01/09 08:37:38;;;;;;;36.80;13.82;;;;;;;-0.56;88.07;99484.47;5111015;28;20132;-79
2021/01/09 08:40:19;;;;;;;38.73;18.20;;;;;;;-0.62;88.00;99484.84;5111933;28;20472;-79
2021/01/09 08:43:00;;;;;;;37.97;17.03;;;;;;;-0.57;87.92;99488.09;5110514;28;20046;-79
2021/01/09 08:45:44;;;;;;;35.00;16.90;;;;;;;-0.59;87.85;99478.47;5092659;28;20059;-79
2021/01/09 08:48:11;;;;;;;41.20;17.67;;;;;;;-0.60;87.65;99480.28;5109730;28;20040;-79
2021/01/09 08:50:45;;;;;;;39.83;18.70;;;;;;;-0.61;87.87;99491.91;5111707;28;20047;-79
2021/01/09 08:53:12;;;;;;;42.63;18.03;;;;;;;-0.60;87.70;99496.31;5111281;28;20046;-79
2021/01/09 08:55:39;;;;;;;48.67;20.00;;;;;;;-0.74;87.62;99467.91;5111279;28;20052;-79
2021/01/09 08:58:09;;;;;;;41.20;17.37;;;;;;;-0.68;88.28;99487.09;5111645;28;20468;-79
2021/01/09 09:00:36;;;;;;;44.33;18.77;;;;;;;-0.54;87.43;99484.34;5111528;28;20054;-79
2021/01/09 09:03:03;;;;;;;41.60;17.40;;;;;;;-0.48;87.47;99497.28;5111303;28;20048;-79
2021/01/09 09:05:30;;;;;;;40.87;16.43;;;;;;;-0.57;86.92;99484.56;5111304;28;20403;-79
2021/01/09 09:08:00;;;;;;;40.80;17.93;;;;;;;-0.51;86.43;99501.97;5111613;28;20062;-79
2021/01/09 09:10:29;;;;;;;35.87;16.47;;;;;;;-0.61;86.52;99485.72;5111438;28;20048;-79
2021/01/09 09:13:14;;;;;;;33.53;16.00;;;;;;;-0.58;87.08;99499.72;5111689;28;20056;-79
2021/01/09 09:15:41;;;;;;;32.50;14.63;;;;;;;-0.54;86.63;99493.22;5110991;28;20043;-79
2021/01/09 09:18:09;;;;;;;32.53;14.33;;;;;;;-0.46;86.00;99487.34;5111552;28;20048;-79
2021/01/09 09:20:36;;;;;;;39.30;16.47;;;;;;;-0.39;85.72;99501.13;5109869;28;20480;-79
2021/01/09 09:23:15;;;;;;;32.70;14.30;;;;;;;-0.41;86.32;99508.38;5099329;28;20043;-79
2021/01/09 09:25:42;;;;;;;34.58;14.32;;;;;;;-0.49;85.76;99505.41;5111307;28;20427;-79
2021/01/09 09:28:08;;;;;;;34.07;14.33;;;;;;;-0.42;85.96;99518.22;5110848;28;20504;-80
2021/01/09 09:30:35;;;;;;;25.43;12.90;;;;;;;-0.58;85.23;99489.03;5112341;28;20054;-78
2021/01/09 09:33:11;;;;;;;34.70;15.40;;;;;;;-0.40;85.21;99515.44;5112426;28;20101;-78
2021/01/09 09:35:39;;;;;;;29.10;15.23;;;;;;;-0.48;85.44;99507.09;5111762;28;20074;-78
2021/01/09 09:38:25;;;;;;;29.83;13.33;;;;;;;-0.42;85.25;99525.34;5113135;28;20043;-79
2021/01/09 09:40:51;;;;;;;24.07;12.50;;;;;;;-0.37;85.04;99528.59;5110856;28;20074;-78
2021/01/09 09:43:19;;;;;;;28.57;14.13;;;;;;;-0.31;84.88;99524.63;5111409;28;20051;-78
2021/01/09 09:45:56;;;;;;;27.13;11.63;;;;;;;-0.44;85.14;99509.44;5109384;28;20074;-79
2021/01/09 09:48:31;;;;;;;27.73;12.97;;;;;;;-0.33;83.95;99535.44;5113369;28;20419;-79
2021/01/09 09:51:10;;;;;;;26.70;13.47;;;;;;;-0.28;83.25;99516.41;5114628;28;20051;-79
2021/01/09 09:53:40;;;;;;;24.87;10.43;;;;;;;-0.16;81.90;99531.56;5114287;27;20277;-79
2021/01/09 09:56:14;;;;;;;23.98;12.02;;;;;;;-0.21;81.25;99528.34;5114049;28;20289;-79
2021/01/09 09:58:40;;;;;;;24.27;11.00;;;;;;;-0.30;81.56;99516.53;5114474;28;20048;-78
2021/01/09 10:01:17;;;;;;;19.67;10.43;;;;;;;-0.37;80.03;99504.53;5107507;28;20051;-79
2021/01/09 10:03:44;;;;;;;20.87;9.77;;;;;;;-0.13;79.55;99518.00;5093526;28;20067;-79
2021/01/09 10:06:10;;;;;;;15.30;8.07;;;;;;;-0.11;79.71;99517.88;5110234;27;20051;-79
2021/01/09 10:08:37;;;;;;;19.87;8.87;;;;;;;0.20;78.07;99529.06;5114789;28;20050;-78
2021/01/09 10:11:04;;;;;;;12.87;7.47;;;;;;;0.24;76.72;99526.09;5113952;28;20051;-79
2021/01/09 10:13:35;;;;;;;16.00;8.27;;;;;;;0.19;76.08;99517.53;5114238;28;20673;-78
2021/01/09 10:16:02;;;;;;;14.57;8.00;;;;;;;0.09;75.24;99524.47;5115685;28;20051;-78
2021/01/09 10:18:30;;;;;;;13.87;6.60;;;;;;;-0.13;75.94;99499.28;5119847;28;20040;-78
2021/01/09 10:20:57;;;;;;;13.97;7.27;;;;;;;0.07;75.25;99510.38;5119196;28;20491;-78
2021/01/09 10:23:23;;;;;;;12.87;6.40;;;;;;;0.17;75.67;99525.66;5115669;28;20531;-79
2021/01/09 10:25:51;;;;;;;15.80;7.27;;;;;;;0.19;75.89;99527.38;5113284;28;20040;-79
2021/01/09 10:28:17;;;;;;;16.03;7.43;;;;;;;0.11;75.50;99519.91;5113394;28;20298;-79
2021/01/09 10:30:43;;;;;;;13.40;7.07;;;;;;;0.24;75.55;99526.09;5114951;28;20055;-79
2021/01/09 10:33:11;;;;;;;12.03;6.93;;;;;;;0.15;74.34;99514.22;5115333;28;20052;-79
2021/01/09 10:35:37;;;;;;;11.90;6.23;;;;;;;0.22;75.73;99525.31;5115282;28;20083;-79
2021/01/09 10:38:03;;;;;;;15.80;8.00;;;;;;;0.29;74.51;99517.72;5114200;28;20048;-79
2021/01/09 10:40:30;;;;;;;13.07;6.03;;;;;;;0.38;73.89;99516.19;5113796;28;20461;-79
2021/01/09 10:42:57;;;;;;;12.80;6.57;;;;;;;0.23;73.71;99515.50;5114012;28;20538;-79
2021/01/09 10:45:23;;;;;;;12.60;6.40;;;;;;;0.27;74.96;99503.59;5112813;28;20059;-79
2021/01/09 10:47:49;;;;;;;13.23;6.97;;;;;;;0.41;74.54;99505.28;5113827;28;20055;-79
2021/01/09 10:50:16;;;;;;;11.93;5.90;;;;;;;0.57;73.99;99503.16;5110405;28;20052;-79
2021/01/09 10:52:42;;;;;;;11.80;6.27;;;;;;;0.72;73.34;99503.03;5113261;28;20048;-79
2021/01/09 10:55:09;;;;;;;12.43;6.27;;;;;;;0.73;72.92;99480.66;5112398;28;20044;-79
2021/01/09 10:57:35;;;;;;;11.33;6.00;;;;;;;0.69;71.53;99491.59;5112944;28;20059;-80
2021/01/09 11:00:04;;;;;;;11.33;5.87;;;;;;;0.71;73.08;99499.50;5111189;28;20097;-80
2021/01/09 11:02:30;;;;;;;9.33;5.37;;;;;;;0.88;73.26;99504.44;5112357;28;20051;-80
2021/01/09 11:04:57;;;;;;;11.97;6.37;;;;;;;0.91;73.14;99506.03;5113343;28;20043;-80
2021/01/09 11:07:23;;;;;;;11.30;6.43;;;;;;;0.85;72.58;99493.97;5113120;28;20055;-80
2021/01/09 11:09:49;;;;;;;10.57;5.77;;;;;;;0.90;71.22;99493.59;5113670;28;20054;-80
2021/01/09 11:12:16;;;;;;;9.23;5.53;;;;;;;0.94;73.63;99511.16;5112627;28;20047;-80
2021/01/09 11:14:43;;;;;;;11.73;5.53;;;;;;;0.89;73.78;99507.97;5112864;28;20044;-80
2021/01/09 11:17:10;;;;;;;9.50;5.10;;;;;;;0.96;73.75;99509.22;5099913;28;20097;-80
2021/01/09 11:19:36;;;;;;;11.77;6.33;;;;;;;0.84;72.82;99499.44;5113749;28;20116;-80
2021/01/09 11:22:03;;;;;;;10.30;4.80;;;;;;;0.83;71.28;99520.00;5113166;28;20056;-80
2021/01/09 11:24:30;;;;;;;7.57;4.67;;;;;;;0.75;71.76;99511.66;5113192;28;20040;-80